Terminal Aerodrome Forecast
Issued by NWS

Home | Current Version | Previous Version | Text Only | Print | Product List | Glossary On
Versions: 1 2 3 4 5 6 7 8 9 10 11 12 13 14 15 16 17 18 19 20 21 22
000
FTAK31 PAFA 202335
TAFAOM
TAF
PAOM 202335Z 2100/2124 14015KT P6SM -SN BKN015 OVC025
     FM210600 12030G40KT 1/4SM SN BLSN FG BKN007 OVC015
     FM211000 15030G40KT 1/2SM SN BLSN BKN004 OVC015=

USA.gov is the U.S. government's official web portal to all federal, state and local government web resources and services.